sensor_id;sensor_type;location;lat;lon;timestamp;P1;durP1;ratioP1;P2;durP2;ratioP2
37645;SDS011;23489;49.600;6.138;2023-09-12T00:00:07;7.90;;;7.00;;
37645;SDS011;23489;49.600;6.138;2023-09-12T00:02:39;10.32;;;7.63;;
37645;SDS011;23489;49.600;6.138;2023-09-12T00:05:04;9.27;;;7.25;;
37645;SDS011;23489;49.600;6.138;2023-09-12T00:07:30;8.25;;;7.35;;
37645;SDS011;23489;49.600;6.138;2023-09-12T00:09:56;8.98;;;7.13;;
37645;SDS011;23489;49.600;6.138;2023-09-12T00:12:22;10.57;;;7.80;;
37645;SDS011;23489;49.600;6.138;2023-09-12T00:14:49;12.40;;;8.50;;
37645;SDS011;23489;49.600;6.138;2023-09-12T00:17:16;12.98;;;9.50;;
37645;SDS011;23489;49.600;6.138;2023-09-12T00:19:42;12.87;;;8.73;;
37645;SDS011;23489;49.600;6.138;2023-09-12T00:22:08;11.57;;;8.10;;
37645;SDS011;23489;49.600;6.138;2023-09-12T00:24:33;10.23;;;7.67;;
37645;SDS011;23489;49.600;6.138;2023-09-12T00:26:59;12.32;;;9.63;;
37645;SDS011;23489;49.600;6.138;2023-09-12T00:29:24;11.55;;;9.25;;
37645;SDS011;23489;49.600;6.138;2023-09-12T00:31:50;13.57;;;9.40;;
37645;SDS011;23489;49.600;6.138;2023-09-12T00:34:16;13.75;;;9.30;;
37645;SDS011;23489;49.600;6.138;2023-09-12T00:36:42;10.80;;;9.50;;
37645;SDS011;23489;49.600;6.138;2023-09-12T00:39:08;13.97;;;9.47;;
37645;SDS011;23489;49.600;6.138;2023-09-12T00:41:33;12.67;;;9.07;;
37645;SDS011;23489;49.600;6.138;2023-09-12T00:43:59;13.52;;;9.93;;
37645;SDS011;23489;49.600;6.138;2023-09-12T00:46:25;13.67;;;9.20;;
37645;SDS011;23489;49.600;6.138;2023-09-12T00:48:52;10.13;;;9.02;;
37645;SDS011;23489;49.600;6.138;2023-09-12T00:51:20;12.43;;;9.50;;
37645;SDS011;23489;49.600;6.138;2023-09-12T00:53:47;12.85;;;10.00;;
37645;SDS011;23489;49.600;6.138;2023-09-12T00:56:13;13.05;;;9.77;;
37645;SDS011;23489;49.600;6.138;2023-09-12T00:58:39;11.68;;;9.93;;
37645;SDS011;23489;49.600;6.138;2023-09-12T01:01:05;11.90;;;10.00;;
37645;SDS011;23489;49.600;6.138;2023-09-12T01:03:31;12.75;;;10.00;;
37645;SDS011;23489;49.600;6.138;2023-09-12T01:05:57;15.23;;;10.32;;
37645;SDS011;23489;49.600;6.138;2023-09-12T01:08:24;11.38;;;9.90;;
37645;SDS011;23489;49.600;6.138;2023-09-12T01:10:50;11.70;;;9.70;;
37645;SDS011;23489;49.600;6.138;2023-09-12T01:13:18;11.52;;;9.32;;
37645;SDS011;23489;49.600;6.138;2023-09-12T01:15:44;13.15;;;10.32;;
37645;SDS011;23489;49.600;6.138;2023-09-12T01:18:09;15.18;;;9.70;;
37645;SDS011;23489;49.600;6.138;2023-09-12T01:20:36;13.40;;;10.38;;
37645;SDS011;23489;49.600;6.138;2023-09-12T01:28:35;12.03;;;10.20;;
37645;SDS011;23489;49.600;6.138;2023-09-12T01:31:07;13.93;;;10.63;;
37645;SDS011;23489;49.600;6.138;2023-09-12T01:33:34;12.77;;;10.07;;
37645;SDS011;23489;49.600;6.138;2023-09-12T01:36:00;12.25;;;10.30;;
37645;SDS011;23489;49.600;6.138;2023-09-12T01:38:26;13.45;;;10.93;;
37645;SDS011;23489;49.600;6.138;2023-09-12T01:40:52;12.02;;;10.48;;
37645;SDS011;23489;49.600;6.138;2023-09-12T01:43:21;12.03;;;10.30;;
37645;SDS011;23489;49.600;6.138;2023-09-12T01:45:49;14.68;;;9.70;;
37645;SDS011;23489;49.600;6.138;2023-09-12T01:48:22;11.27;;;10.07;;
37645;SDS011;23489;49.600;6.138;2023-09-12T01:50:51;10.82;;;9.73;;
37645;SDS011;23489;49.600;6.138;2023-09-12T01:53:17;14.60;;;9.67;;
37645;SDS011;23489;49.600;6.138;2023-09-12T01:55:43;12.43;;;9.73;;
37645;SDS011;23489;49.600;6.138;2023-09-12T01:58:11;12.52;;;9.50;;
37645;SDS011;23489;49.600;6.138;2023-09-12T02:00:38;13.37;;;9.77;;
37645;SDS011;23489;49.600;6.138;2023-09-12T02:03:04;12.05;;;9.70;;
37645;SDS011;23489;49.600;6.138;2023-09-12T02:05:30;12.87;;;10.13;;
37645;SDS011;23489;49.600;6.138;2023-09-12T02:07:57;11.90;;;9.73;;
37645;SDS011;23489;49.600;6.138;2023-09-12T02:10:25;11.95;;;10.07;;
37645;SDS011;23489;49.600;6.138;2023-09-12T02:12:51;11.40;;;9.52;;
37645;SDS011;23489;49.600;6.138;2023-09-12T02:15:16;13.63;;;9.55;;
37645;SDS011;23489;49.600;6.138;2023-09-12T02:17:42;12.60;;;9.73;;
37645;SDS011;23489;49.600;6.138;2023-09-12T02:20:08;14.47;;;10.00;;
37645;SDS011;23489;49.600;6.138;2023-09-12T02:22:34;13.48;;;9.38;;
37645;SDS011;23489;49.600;6.138;2023-09-12T02:25:00;12.13;;;9.80;;
37645;SDS011;23489;49.600;6.138;2023-09-12T02:27:27;12.45;;;10.40;;
37645;SDS011;23489;49.600;6.138;2023-09-12T02:29:53;14.38;;;10.30;;
37645;SDS011;23489;49.600;6.138;2023-09-12T02:32:20;13.32;;;9.57;;
37645;SDS011;23489;49.600;6.138;2023-09-12T02:34:45;11.07;;;9.63;;
37645;SDS011;23489;49.600;6.138;2023-09-12T02:37:11;12.17;;;9.70;;
37645;SDS011;23489;49.600;6.138;2023-09-12T02:39:37;11.25;;;9.50;;
37645;SDS011;23489;49.600;6.138;2023-09-12T02:42:02;12.27;;;9.80;;
37645;SDS011;23489;49.600;6.138;2023-09-12T02:44:28;12.07;;;9.50;;
37645;SDS011;23489;49.600;6.138;2023-09-12T02:46:54;12.73;;;9.43;;
37645;SDS011;23489;49.600;6.138;2023-09-12T02:49:19;13.88;;;9.63;;
37645;SDS011;23489;49.600;6.138;2023-09-12T02:51:46;13.43;;;10.00;;
37645;SDS011;23489;49.600;6.138;2023-09-12T02:54:11;12.30;;;9.95;;
37645;SDS011;23489;49.600;6.138;2023-09-12T02:56:37;11.93;;;9.82;;
37645;SDS011;23489;49.600;6.138;2023-09-12T02:59:03;11.02;;;9.93;;
37645;SDS011;23489;49.600;6.138;2023-09-12T03:01:30;13.35;;;10.35;;
37645;SDS011;23489;49.600;6.138;2023-09-12T03:03:55;12.43;;;10.35;;
37645;SDS011;23489;49.600;6.138;2023-09-12T03:06:22;12.65;;;10.02;;
37645;SDS011;23489;49.600;6.138;2023-09-12T03:08:48;13.57;;;9.67;;
37645;SDS011;23489;49.600;6.138;2023-09-12T03:11:13;12.32;;;10.20;;
37645;SDS011;23489;49.600;6.138;2023-09-12T03:13:40;12.23;;;10.70;;
37645;SDS011;23489;49.600;6.138;2023-09-12T03:16:10;13.70;;;11.30;;
37645;SDS011;23489;49.600;6.138;2023-09-12T03:18:36;13.27;;;10.77;;
37645;SDS011;23489;49.600;6.138;2023-09-12T03:21:02;14.63;;;10.63;;
37645;SDS011;23489;49.600;6.138;2023-09-12T03:23:27;16.40;;;11.63;;
37645;SDS011;23489;49.600;6.138;2023-09-12T03:25:53;15.77;;;11.10;;
37645;SDS011;23489;49.600;6.138;2023-09-12T03:28:19;11.20;;;9.97;;
37645;SDS011;23489;49.600;6.138;2023-09-12T03:30:44;14.20;;;10.80;;
37645;SDS011;23489;49.600;6.138;2023-09-12T03:33:10;14.80;;;9.93;;
37645;SDS011;23489;49.600;6.138;2023-09-12T03:35:36;13.48;;;10.30;;
37645;SDS011;23489;49.600;6.138;2023-09-12T03:38:02;15.20;;;10.47;;
37645;SDS011;23489;49.600;6.138;2023-09-12T03:40:28;14.00;;;10.40;;
37645;SDS011;23489;49.600;6.138;2023-09-12T03:42:57;11.52;;;10.30;;
37645;SDS011;23489;49.600;6.138;2023-09-12T03:45:23;11.20;;;9.90;;
37645;SDS011;23489;49.600;6.138;2023-09-12T03:47:49;14.05;;;10.77;;
37645;SDS011;23489;49.600;6.138;2023-09-12T03:50:16;11.68;;;10.10;;
37645;SDS011;23489;49.600;6.138;2023-09-12T03:52:41;12.68;;;10.20;;
37645;SDS011;23489;49.600;6.138;2023-09-12T03:55:07;15.68;;;10.90;;
37645;SDS011;23489;49.600;6.138;2023-09-12T03:57:33;11.88;;;10.10;;
37645;SDS011;23489;49.600;6.138;2023-09-12T03:59:59;12.67;;;11.03;;
37645;SDS011;23489;49.600;6.138;2023-09-12T04:02:25;11.83;;;10.63;;
37645;SDS011;23489;49.600;6.138;2023-09-12T04:04:50;13.57;;;10.70;;
37645;SDS011;23489;49.600;6.138;2023-09-12T04:07:17;15.45;;;11.45;;
37645;SDS011;23489;49.600;6.138;2023-09-12T04:09:43;14.47;;;11.10;;
37645;SDS011;23489;49.600;6.138;2023-09-12T04:12:09;14.85;;;11.15;;
37645;SDS011;23489;49.600;6.138;2023-09-12T04:14:35;13.80;;;11.10;;
37645;SDS011;23489;49.600;6.138;2023-09-12T04:17:01;13.57;;;10.65;;
37645;SDS011;23489;49.600;6.138;2023-09-12T04:19:28;14.40;;;11.15;;
37645;SDS011;23489;49.600;6.138;2023-09-12T04:21:53;14.87;;;11.80;;
37645;SDS011;23489;49.600;6.138;2023-09-12T04:24:19;15.40;;;11.98;;
37645;SDS011;23489;49.600;6.138;2023-09-12T04:26:46;15.60;;;12.13;;
37645;SDS011;23489;49.600;6.138;2023-09-12T04:29:11;14.63;;;12.10;;
37645;SDS011;23489;49.600;6.138;2023-09-12T04:31:37;14.67;;;11.57;;
37645;SDS011;23489;49.600;6.138;2023-09-12T04:34:03;15.82;;;12.25;;
37645;SDS011;23489;49.600;6.138;2023-09-12T04:36:28;15.00;;;12.13;;
37645;SDS011;23489;49.600;6.138;2023-09-12T04:38:54;15.03;;;11.93;;
37645;SDS011;23489;49.600;6.138;2023-09-12T04:41:19;14.93;;;12.50;;
37645;SDS011;23489;49.600;6.138;2023-09-12T04:43:45;14.95;;;12.15;;
37645;SDS011;23489;49.600;6.138;2023-09-12T04:46:12;13.75;;;11.80;;
37645;SDS011;23489;49.600;6.138;2023-09-12T04:48:38;15.00;;;12.50;;
37645;SDS011;23489;49.600;6.138;2023-09-12T04:51:04;15.70;;;12.63;;
37645;SDS011;23489;49.600;6.138;2023-09-12T04:53:30;14.00;;;12.52;;
37645;SDS011;23489;49.600;6.138;2023-09-12T04:56:02;16.60;;;12.65;;
37645;SDS011;23489;49.600;6.138;2023-09-12T04:58:28;15.52;;;12.82;;
37645;SDS011;23489;49.600;6.138;2023-09-12T05:00:54;19.40;;;13.33;;
37645;SDS011;23489;49.600;6.138;2023-09-12T05:03:21;17.33;;;12.98;;
37645;SDS011;23489;49.600;6.138;2023-09-12T05:05:47;15.73;;;13.13;;
37645;SDS011;23489;49.600;6.138;2023-09-12T05:08:15;18.50;;;13.63;;
37645;SDS011;23489;49.600;6.138;2023-09-12T05:10:45;17.85;;;13.88;;
37645;SDS011;23489;49.600;6.138;2023-09-12T05:13:11;17.20;;;14.02;;
37645;SDS011;23489;49.600;6.138;2023-09-12T05:15:37;16.83;;;13.90;;
37645;SDS011;23489;49.600;6.138;2023-09-12T05:18:07;16.75;;;13.40;;
37645;SDS011;23489;49.600;6.138;2023-09-12T05:20:34;18.10;;;14.70;;
37645;SDS011;23489;49.600;6.138;2023-09-12T05:22:59;17.37;;;13.40;;
37645;SDS011;23489;49.600;6.138;2023-09-12T05:25:25;19.65;;;13.30;;
37645;SDS011;23489;49.600;6.138;2023-09-12T05:27:52;15.02;;;13.10;;
37645;SDS011;23489;49.600;6.138;2023-09-12T05:30:17;17.33;;;13.10;;
37645;SDS011;23489;49.600;6.138;2023-09-12T05:32:43;22.00;;;14.95;;
37645;SDS011;23489;49.600;6.138;2023-09-12T05:35:10;16.92;;;13.35;;
37645;SDS011;23489;49.600;6.138;2023-09-12T05:37:37;16.23;;;13.15;;
37645;SDS011;23489;49.600;6.138;2023-09-12T05:40:03;19.27;;;14.18;;
37645;SDS011;23489;49.600;6.138;2023-09-12T05:42:29;15.93;;;13.52;;
37645;SDS011;23489;49.600;6.138;2023-09-12T05:44:55;17.35;;;14.45;;
37645;SDS011;23489;49.600;6.138;2023-09-12T05:47:22;16.25;;;13.35;;
37645;SDS011;23489;49.600;6.138;2023-09-12T05:49:48;16.40;;;13.30;;
37645;SDS011;23489;49.600;6.138;2023-09-12T05:52:13;17.33;;;13.00;;
37645;SDS011;23489;49.600;6.138;2023-09-12T05:54:39;16.42;;;13.80;;
37645;SDS011;23489;49.600;6.138;2023-09-12T05:57:09;16.27;;;13.27;;
37645;SDS011;23489;49.600;6.138;2023-09-12T05:59:36;19.33;;;13.40;;
37645;SDS011;23489;49.600;6.138;2023-09-12T06:02:03;21.40;;;13.40;;
37645;SDS011;23489;49.600;6.138;2023-09-12T06:04:31;14.57;;;12.98;;
37645;SDS011;23489;49.600;6.138;2023-09-12T06:06:57;17.15;;;13.77;;
37645;SDS011;23489;49.600;6.138;2023-09-12T06:09:23;19.43;;;13.70;;
37645;SDS011;23489;49.600;6.138;2023-09-12T06:11:48;20.05;;;13.80;;
37645;SDS011;23489;49.600;6.138;2023-09-12T06:14:14;17.17;;;13.98;;
37645;SDS011;23489;49.600;6.138;2023-09-12T06:16:40;17.37;;;13.57;;
37645;SDS011;23489;49.600;6.138;2023-09-12T06:19:05;18.80;;;13.73;;
37645;SDS011;23489;49.600;6.138;2023-09-12T06:21:31;18.50;;;13.93;;
37645;SDS011;23489;49.600;6.138;2023-09-12T06:24:10;18.25;;;14.73;;
37645;SDS011;23489;49.600;6.138;2023-09-12T06:26:46;16.67;;;14.60;;
37645;SDS011;23489;49.600;6.138;2023-09-12T06:29:12;18.38;;;14.70;;
37645;SDS011;23489;49.600;6.138;2023-09-12T06:31:39;18.63;;;14.20;;
37645;SDS011;23489;49.600;6.138;2023-09-12T06:34:06;19.75;;;14.73;;
37645;SDS011;23489;49.600;6.138;2023-09-12T06:36:32;16.75;;;13.85;;
37645;SDS011;23489;49.600;6.138;2023-09-12T06:38:58;16.42;;;12.98;;
37645;SDS011;23489;49.600;6.138;2023-09-12T06:41:25;16.17;;;13.77;;
37645;SDS011;23489;49.600;6.138;2023-09-12T06:43:51;17.27;;;12.93;;
37645;SDS011;23489;49.600;6.138;2023-09-12T06:46:17;16.13;;;12.52;;
37645;SDS011;23489;49.600;6.138;2023-09-12T06:48:44;14.90;;;12.45;;
37645;SDS011;23489;49.600;6.138;2023-09-12T06:51:10;15.73;;;12.73;;
37645;SDS011;23489;49.600;6.138;2023-09-12T06:53:36;14.88;;;12.25;;
37645;SDS011;23489;49.600;6.138;2023-09-12T06:56:02;14.57;;;12.27;;
37645;SDS011;23489;49.600;6.138;2023-09-12T06:58:28;16.20;;;11.90;;
37645;SDS011;23489;49.600;6.138;2023-09-12T07:00:54;13.55;;;11.50;;
37645;SDS011;23489;49.600;6.138;2023-09-12T07:03:20;14.10;;;11.07;;
37645;SDS011;23489;49.600;6.138;2023-09-12T07:05:46;12.53;;;10.60;;
37645;SDS011;23489;49.600;6.138;2023-09-12T07:08:11;12.85;;;10.25;;
37645;SDS011;23489;49.600;6.138;2023-09-12T07:10:39;14.65;;;10.10;;
37645;SDS011;23489;49.600;6.138;2023-09-12T07:13:10;12.85;;;9.63;;
37645;SDS011;23489;49.600;6.138;2023-09-12T07:15:36;11.33;;;8.97;;
37645;SDS011;23489;49.600;6.138;2023-09-12T07:18:01;13.20;;;9.23;;
37645;SDS011;23489;49.600;6.138;2023-09-12T07:20:27;11.87;;;9.27;;
37645;SDS011;23489;49.600;6.138;2023-09-12T07:22:53;11.37;;;9.43;;
37645;SDS011;23489;49.600;6.138;2023-09-12T07:25:18;11.10;;;8.87;;
37645;SDS011;23489;49.600;6.138;2023-09-12T07:27:46;10.52;;;8.35;;
37645;SDS011;23489;49.600;6.138;2023-09-12T07:30:11;11.85;;;8.95;;
37645;SDS011;23489;49.600;6.138;2023-09-12T07:32:37;10.93;;;7.72;;
37645;SDS011;23489;49.600;6.138;2023-09-12T07:35:03;10.23;;;8.40;;
37645;SDS011;23489;49.600;6.138;2023-09-12T07:37:28;9.65;;;8.07;;
37645;SDS011;23489;49.600;6.138;2023-09-12T07:39:54;9.52;;;7.95;;
37645;SDS011;23489;49.600;6.138;2023-09-12T07:42:23;10.70;;;7.82;;
37645;SDS011;23489;49.600;6.138;2023-09-12T07:44:49;10.83;;;7.67;;
37645;SDS011;23489;49.600;6.138;2023-09-12T07:47:15;10.53;;;6.97;;
37645;SDS011;23489;49.600;6.138;2023-09-12T07:49:41;8.63;;;7.27;;
37645;SDS011;23489;49.600;6.138;2023-09-12T07:52:06;13.33;;;7.83;;
37645;SDS011;23489;49.600;6.138;2023-09-12T07:54:32;13.30;;;7.17;;
37645;SDS011;23489;49.600;6.138;2023-09-12T07:56:58;8.50;;;6.72;;
37645;SDS011;23489;49.600;6.138;2023-09-12T07:59:24;8.43;;;7.13;;
37645;SDS011;23489;49.600;6.138;2023-09-12T08:01:49;8.82;;;6.53;;
37645;SDS011;23489;49.600;6.138;2023-09-12T08:04:16;8.90;;;6.80;;
37645;SDS011;23489;49.600;6.138;2023-09-12T08:06:42;8.98;;;6.22;;
37645;SDS011;23489;49.600;6.138;2023-09-12T08:09:08;9.50;;;6.20;;
37645;SDS011;23489;49.600;6.138;2023-09-12T08:11:35;7.90;;;6.30;;
37645;SDS011;23489;49.600;6.138;2023-09-12T08:14:01;8.98;;;6.03;;
37645;SDS011;23489;49.600;6.138;2023-09-12T08:16:26;7.78;;;6.25;;
37645;SDS011;23489;49.600;6.138;2023-09-12T08:18:52;8.98;;;6.30;;
37645;SDS011;23489;49.600;6.138;2023-09-12T08:21:18;10.70;;;6.22;;
37645;SDS011;23489;49.600;6.138;2023-09-12T08:23:43;10.47;;;6.53;;
37645;SDS011;23489;49.600;6.138;2023-09-12T08:26:10;7.45;;;6.50;;
37645;SDS011;23489;49.600;6.138;2023-09-12T08:28:35;9.25;;;7.32;;
37645;SDS011;23489;49.600;6.138;2023-09-12T08:31:01;11.32;;;7.53;;
37645;SDS011;23489;49.600;6.138;2023-09-12T08:33:27;12.40;;;7.73;;
37645;SDS011;23489;49.600;6.138;2023-09-12T08:35:52;9.83;;;7.60;;
37645;SDS011;23489;49.600;6.138;2023-09-12T08:38:18;11.93;;;7.20;;
37645;SDS011;23489;49.600;6.138;2023-09-12T08:40:50;10.10;;;7.63;;
37645;SDS011;23489;49.600;6.138;2023-09-12T08:43:16;10.65;;;8.38;;
37645;SDS011;23489;49.600;6.138;2023-09-12T08:45:42;14.20;;;8.45;;
37645;SDS011;23489;49.600;6.138;2023-09-12T08:48:11;9.65;;;7.18;;
37645;SDS011;23489;49.600;6.138;2023-09-12T08:50:38;11.73;;;6.10;;
37645;SDS011;23489;49.600;6.138;2023-09-12T08:53:04;9.38;;;7.10;;
37645;SDS011;23489;49.600;6.138;2023-09-12T08:55:30;12.47;;;7.87;;
37645;SDS011;23489;49.600;6.138;2023-09-12T14:03:33;8.50;;;4.80;;
37645;SDS011;23489;49.600;6.138;2023-09-12T14:05:59;12.38;;;4.88;;
37645;SDS011;23489;49.600;6.138;2023-09-12T14:08:24;6.00;;;5.05;;
37645;SDS011;23489;49.600;6.138;2023-09-12T14:10:50;6.72;;;5.32;;
37645;SDS011;23489;49.600;6.138;2023-09-12T14:13:16;11.05;;;6.13;;
37645;SDS011;23489;49.600;6.138;2023-09-12T14:15:41;5.47;;;4.93;;
37645;SDS011;23489;49.600;6.138;2023-09-12T14:18:07;7.07;;;4.95;;
37645;SDS011;23489;49.600;6.138;2023-09-12T14:20:33;7.15;;;5.10;;
37645;SDS011;23489;49.600;6.138;2023-09-12T14:22:59;7.53;;;5.00;;
37645;SDS011;23489;49.600;6.138;2023-09-12T14:25:25;7.88;;;5.18;;
37645;SDS011;23489;49.600;6.138;2023-09-12T14:27:50;10.05;;;4.53;;
37645;SDS011;23489;49.600;6.138;2023-09-12T14:30:16;6.18;;;4.47;;
37645;SDS011;23489;49.600;6.138;2023-09-12T14:32:43;5.30;;;4.10;;
37645;SDS011;23489;49.600;6.138;2023-09-12T14:35:09;5.30;;;4.60;;
37645;SDS011;23489;49.600;6.138;2023-09-12T14:37:34;6.47;;;4.87;;
37645;SDS011;23489;49.600;6.138;2023-09-12T14:40:02;5.57;;;4.47;;
37645;SDS011;23489;49.600;6.138;2023-09-12T14:42:29;6.03;;;4.63;;
37645;SDS011;23489;49.600;6.138;2023-09-12T14:44:56;4.97;;;4.38;;
37645;SDS011;23489;49.600;6.138;2023-09-12T14:47:21;6.40;;;4.40;;
37645;SDS011;23489;49.600;6.138;2023-09-12T14:49:49;6.13;;;4.60;;
37645;SDS011;23489;49.600;6.138;2023-09-12T14:52:14;5.47;;;4.53;;
37645;SDS011;23489;49.600;6.138;2023-09-12T14:54:40;8.03;;;5.17;;
37645;SDS011;23489;49.600;6.138;2023-09-12T14:57:05;7.83;;;5.40;;
37645;SDS011;23489;49.600;6.138;2023-09-12T14:59:31;7.47;;;4.90;;
37645;SDS011;23489;49.600;6.138;2023-09-12T15:01:56;7.63;;;5.17;;
37645;SDS011;23489;49.600;6.138;2023-09-12T15:04:22;6.37;;;5.40;;
37645;SDS011;23489;49.600;6.138;2023-09-12T15:06:49;6.88;;;5.65;;
37645;SDS011;23489;49.600;6.138;2023-09-12T15:09:15;5.90;;;5.00;;
37645;SDS011;23489;49.600;6.138;2023-09-12T15:11:40;6.83;;;5.50;;
37645;SDS011;23489;49.600;6.138;2023-09-12T15:14:06;8.40;;;5.23;;
37645;SDS011;23489;49.600;6.138;2023-09-12T15:16:31;6.07;;;4.87;;
37645;SDS011;23489;49.600;6.138;2023-09-12T15:18:59;6.45;;;5.40;;
37645;SDS011;23489;49.600;6.138;2023-09-12T15:21:27;7.07;;;5.30;;
37645;SDS011;23489;49.600;6.138;2023-09-12T15:23:53;6.53;;;5.57;;
37645;SDS011;23489;49.600;6.138;2023-09-12T15:26:18;10.40;;;6.07;;
37645;SDS011;23489;49.600;6.138;2023-09-12T15:28:44;6.73;;;5.63;;
37645;SDS011;23489;49.600;6.138;2023-09-12T15:31:10;6.63;;;5.50;;
37645;SDS011;23489;49.600;6.138;2023-09-12T15:33:36;7.80;;;5.78;;
37645;SDS011;23489;49.600;6.138;2023-09-12T15:36:02;6.78;;;5.75;;
37645;SDS011;23489;49.600;6.138;2023-09-12T15:38:28;7.93;;;6.07;;
37645;SDS011;23489;49.600;6.138;2023-09-12T15:40:53;9.47;;;5.90;;
37645;SDS011;23489;49.600;6.138;2023-09-12T15:43:19;8.65;;;6.15;;
37645;SDS011;23489;49.600;6.138;2023-09-12T15:45:45;8.20;;;5.82;;
37645;SDS011;23489;49.600;6.138;2023-09-12T15:48:13;7.50;;;5.85;;
37645;SDS011;23489;49.600;6.138;2023-09-12T15:50:39;6.60;;;5.90;;
37645;SDS011;23489;49.600;6.138;2023-09-12T15:53:05;7.60;;;5.83;;
37645;SDS011;23489;49.600;6.138;2023-09-12T15:55:31;7.00;;;5.63;;
37645;SDS011;23489;49.600;6.138;2023-09-12T15:57:56;7.83;;;5.57;;
37645;SDS011;23489;49.600;6.138;2023-09-12T16:00:22;7.10;;;5.43;;
37645;SDS011;23489;49.600;6.138;2023-09-12T16:02:47;6.13;;;5.33;;
37645;SDS011;23489;49.600;6.138;2023-09-12T16:05:16;7.40;;;4.95;;
37645;SDS011;23489;49.600;6.138;2023-09-12T16:07:42;6.18;;;5.28;;
37645;SDS011;23489;49.600;6.138;2023-09-12T16:10:07;6.95;;;5.40;;
37645;SDS011;23489;49.600;6.138;2023-09-12T16:12:36;8.63;;;5.17;;
37645;SDS011;23489;49.600;6.138;2023-09-12T16:15:02;6.90;;;5.68;;
37645;SDS011;23489;49.600;6.138;2023-09-12T16:17:28;7.73;;;5.27;;
37645;SDS011;23489;49.600;6.138;2023-09-12T16:19:53;8.53;;;6.10;;
37645;SDS011;23489;49.600;6.138;2023-09-12T16:22:19;10.13;;;5.90;;
37645;SDS011;23489;49.600;6.138;2023-09-12T16:24:45;6.50;;;5.53;;
37645;SDS011;23489;49.600;6.138;2023-09-12T16:27:10;8.90;;;6.43;;
37645;SDS011;23489;49.600;6.138;2023-09-12T16:29:37;10.95;;;6.50;;
37645;SDS011;23489;49.600;6.138;2023-09-12T16:32:03;8.53;;;6.87;;
37645;SDS011;23489;49.600;6.138;2023-09-12T16:34:28;9.35;;;6.03;;
37645;SDS011;23489;49.600;6.138;2023-09-12T16:36:54;7.05;;;5.00;;
37645;SDS011;23489;49.600;6.138;2023-09-12T16:39:20;10.00;;;4.65;;
37645;SDS011;23489;49.600;6.138;2023-09-12T16:41:46;5.65;;;4.28;;
37645;SDS011;23489;49.600;6.138;2023-09-12T16:44:11;6.78;;;4.30;;
37645;SDS011;23489;49.600;6.138;2023-09-12T16:46:38;4.93;;;4.00;;
37645;SDS011;23489;49.600;6.138;2023-09-12T16:49:04;5.60;;;4.00;;
37645;SDS011;23489;49.600;6.138;2023-09-12T16:51:30;5.63;;;3.90;;
37645;SDS011;23489;49.600;6.138;2023-09-12T16:53:55;4.68;;;3.78;;
37645;SDS011;23489;49.600;6.138;2023-09-12T16:56:21;4.65;;;3.70;;
37645;SDS011;23489;49.600;6.138;2023-09-12T16:58:46;4.43;;;3.50;;
37645;SDS011;23489;49.600;6.138;2023-09-12T17:01:12;4.47;;;3.45;;
37645;SDS011;23489;49.600;6.138;2023-09-12T17:03:37;3.72;;;2.63;;
37645;SDS011;23489;49.600;6.138;2023-09-12T17:06:06;3.50;;;2.65;;
37645;SDS011;23489;49.600;6.138;2023-09-12T17:08:32;2.20;;;2.00;;
37645;SDS011;23489;49.600;6.138;2023-09-12T17:10:57;2.37;;;1.80;;
37645;SDS011;23489;49.600;6.138;2023-09-12T17:13:23;2.00;;;1.80;;
37645;SDS011;23489;49.600;6.138;2023-09-12T17:15:48;2.13;;;1.77;;
37645;SDS011;23489;49.600;6.138;2023-09-12T17:18:14;2.70;;;2.10;;
37645;SDS011;23489;49.600;6.138;2023-09-12T17:20:40;3.17;;;2.58;;
37645;SDS011;23489;49.600;6.138;2023-09-12T17:23:06;2.80;;;2.20;;
37645;SDS011;23489;49.600;6.138;2023-09-12T17:25:31;2.50;;;1.90;;
37645;SDS011;23489;49.600;6.138;2023-09-12T17:27:57;4.97;;;2.33;;
37645;SDS011;23489;49.600;6.138;2023-09-12T17:30:22;2.07;;;1.87;;
37645;SDS011;23489;49.600;6.138;2023-09-12T17:32:48;2.95;;;2.00;;
37645;SDS011;23489;49.600;6.138;2023-09-12T17:35:15;2.88;;;1.90;;
37645;SDS011;23489;49.600;6.138;2023-09-12T17:37:41;1.67;;;1.58;;
37645;SDS011;23489;49.600;6.138;2023-09-12T17:40:06;1.87;;;1.67;;
37645;SDS011;23489;49.600;6.138;2023-09-12T17:42:32;2.92;;;1.90;;
37645;SDS011;23489;49.600;6.138;2023-09-12T17:45:00;1.88;;;1.60;;
37645;SDS011;23489;49.600;6.138;2023-09-12T17:47:25;1.90;;;1.65;;
37645;SDS011;23489;49.600;6.138;2023-09-12T17:49:52;2.70;;;1.90;;
37645;SDS011;23489;49.600;6.138;2023-09-12T17:52:18;3.28;;;1.80;;
37645;SDS011;23489;49.600;6.138;2023-09-12T17:54:43;2.37;;;1.93;;
37645;SDS011;23489;49.600;6.138;2023-09-12T17:57:09;2.77;;;2.43;;
37645;SDS011;23489;49.600;6.138;2023-09-12T17:59:36;3.08;;;2.20;;
37645;SDS011;23489;49.600;6.138;2023-09-12T18:02:05;2.90;;;2.15;;
37645;SDS011;23489;49.600;6.138;2023-09-12T18:04:31;2.92;;;2.08;;
37645;SDS011;23489;49.600;6.138;2023-09-12T18:06:58;3.60;;;2.10;;
37645;SDS011;23489;49.600;6.138;2023-09-12T18:09:24;2.47;;;2.10;;
37645;SDS011;23489;49.600;6.138;2023-09-12T18:11:51;2.43;;;2.00;;
37645;SDS011;23489;49.600;6.138;2023-09-12T18:14:17;3.47;;;1.90;;
37645;SDS011;23489;49.600;6.138;2023-09-12T18:16:43;2.17;;;1.95;;
37645;SDS011;23489;49.600;6.138;2023-09-12T18:19:09;2.67;;;1.98;;
37645;SDS011;23489;49.600;6.138;2023-09-12T18:21:34;3.45;;;2.20;;
37645;SDS011;23489;49.600;6.138;2023-09-12T18:24:02;3.90;;;2.20;;
37645;SDS011;23489;49.600;6.138;2023-09-12T18:26:27;2.38;;;2.03;;
37645;SDS011;23489;49.600;6.138;2023-09-12T18:28:53;3.03;;;2.33;;
37645;SDS011;23489;49.600;6.138;2023-09-12T18:31:21;4.00;;;2.73;;
37645;SDS011;23489;49.600;6.138;2023-09-12T18:33:46;4.00;;;2.90;;
37645;SDS011;23489;49.600;6.138;2023-09-12T18:36:12;2.95;;;2.33;;
37645;SDS011;23489;49.600;6.138;2023-09-12T18:38:38;3.97;;;2.27;;
37645;SDS011;23489;49.600;6.138;2023-09-12T18:41:08;3.38;;;2.65;;
37645;SDS011;23489;49.600;6.138;2023-09-12T18:43:34;4.95;;;3.00;;
37645;SDS011;23489;49.600;6.138;2023-09-12T18:46:00;5.23;;;3.60;;
37645;SDS011;23489;49.600;6.138;2023-09-12T18:48:25;4.87;;;3.40;;
37645;SDS011;23489;49.600;6.138;2023-09-12T18:50:51;6.13;;;3.60;;
37645;SDS011;23489;49.600;6.138;2023-09-12T18:53:17;4.85;;;3.28;;
37645;SDS011;23489;49.600;6.138;2023-09-12T18:55:45;5.20;;;3.33;;
37645;SDS011;23489;49.600;6.138;2023-09-12T18:58:12;3.25;;;2.70;;
37645;SDS011;23489;49.600;6.138;2023-09-12T19:00:38;3.10;;;2.50;;
37645;SDS011;23489;49.600;6.138;2023-09-12T19:03:04;3.40;;;2.33;;
37645;SDS011;23489;49.600;6.138;2023-09-12T19:05:30;4.25;;;3.08;;
37645;SDS011;23489;49.600;6.138;2023-09-12T19:07:55;3.42;;;2.90;;
37645;SDS011;23489;49.600;6.138;2023-09-12T19:10:21;4.93;;;3.10;;
37645;SDS011;23489;49.600;6.138;2023-09-12T19:12:47;3.20;;;2.90;;
37645;SDS011;23489;49.600;6.138;2023-09-12T19:15:12;7.53;;;3.10;;
37645;SDS011;23489;49.600;6.138;2023-09-12T19:17:41;3.72;;;3.00;;
37645;SDS011;23489;49.600;6.138;2023-09-12T19:20:06;2.88;;;2.60;;
37645;SDS011;23489;49.600;6.138;2023-09-12T19:22:33;5.05;;;2.78;;
37645;SDS011;23489;49.600;6.138;2023-09-12T19:24:59;4.20;;;3.40;;
37645;SDS011;23489;49.600;6.138;2023-09-12T19:27:24;3.25;;;2.95;;
37645;SDS011;23489;49.600;6.138;2023-09-12T19:29:51;3.60;;;3.10;;
37645;SDS011;23489;49.600;6.138;2023-09-12T19:32:18;4.90;;;3.30;;
37645;SDS011;23489;49.600;6.138;2023-09-12T19:34:44;4.47;;;2.73;;
37645;SDS011;23489;49.600;6.138;2023-09-12T19:37:10;3.70;;;2.50;;
37645;SDS011;23489;49.600;6.138;2023-09-12T19:39:36;3.28;;;2.58;;